sensor_id;sensor_type;location;lat;lon;timestamp;P1;durP1;ratioP1;P2;durP2;ratioP2
9821;SDS011;4950;46.042;14.472;2022-11-20T00:01:14;2.20;;;1.67;;
9821;SDS011;4950;46.042;14.472;2022-11-20T00:03:42;1.67;;;1.53;;
9821;SDS011;4950;46.042;14.472;2022-11-20T00:06:10;1.77;;;1.60;;
9821;SDS011;4950;46.042;14.472;2022-11-20T00:08:38;1.93;;;1.40;;
9821;SDS011;4950;46.042;14.472;2022-11-20T00:11:05;1.73;;;1.63;;
9821;SDS011;4950;46.042;14.472;2022-11-20T00:13:32;1.77;;;1.63;;
9821;SDS011;4950;46.042;14.472;2022-11-20T00:16:00;2.60;;;1.80;;
9821;SDS011;4950;46.042;14.472;2022-11-20T00:18:30;2.13;;;1.70;;
9821;SDS011;4950;46.042;14.472;2022-11-20T00:21:00;1.77;;;1.10;;
9821;SDS011;4950;46.042;14.472;2022-11-20T00:23:27;3.87;;;1.63;;
9821;SDS011;4950;46.042;14.472;2022-11-20T00:25:53;1.47;;;1.37;;
9821;SDS011;4950;46.042;14.472;2022-11-20T00:28:20;1.87;;;1.30;;
9821;SDS011;4950;46.042;14.472;2022-11-20T00:30:47;1.90;;;1.50;;
9821;SDS011;4950;46.042;14.472;2022-11-20T00:33:13;1.87;;;1.53;;
9821;SDS011;4950;46.042;14.472;2022-11-20T00:35:41;1.97;;;1.40;;
9821;SDS011;4950;46.042;14.472;2022-11-20T00:38:08;1.83;;;1.57;;
9821;SDS011;4950;46.042;14.472;2022-11-20T00:40:35;2.27;;;1.73;;
9821;SDS011;4950;46.042;14.472;2022-11-20T00:43:02;1.77;;;1.47;;
9821;SDS011;4950;46.042;14.472;2022-11-20T00:45:28;2.60;;;1.77;;
9821;SDS011;4950;46.042;14.472;2022-11-20T00:47:55;2.97;;;2.00;;
9821;SDS011;4950;46.042;14.472;2022-11-20T00:50:21;2.30;;;1.93;;
9821;SDS011;4950;46.042;14.472;2022-11-20T00:52:49;1.80;;;1.50;;
9821;SDS011;4950;46.042;14.472;2022-11-20T00:55:16;1.43;;;1.20;;
9821;SDS011;4950;46.042;14.472;2022-11-20T00:57:43;2.23;;;1.43;;
9821;SDS011;4950;46.042;14.472;2022-11-20T01:00:09;1.50;;;1.40;;
9821;SDS011;4950;46.042;14.472;2022-11-20T01:02:36;1.20;;;1.10;;
9821;SDS011;4950;46.042;14.472;2022-11-20T01:05:03;1.50;;;1.40;;
9821;SDS011;4950;46.042;14.472;2022-11-20T01:07:30;1.90;;;1.43;;
9821;SDS011;4950;46.042;14.472;2022-11-20T01:09:59;1.30;;;1.20;;
9821;SDS011;4950;46.042;14.472;2022-11-20T01:12:26;1.87;;;1.20;;
9821;SDS011;4950;46.042;14.472;2022-11-20T01:14:53;1.30;;;1.10;;
9821;SDS011;4950;46.042;14.472;2022-11-20T01:17:19;1.33;;;1.23;;
9821;SDS011;4950;46.042;14.472;2022-11-20T01:19:48;2.03;;;1.10;;
9821;SDS011;4950;46.042;14.472;2022-11-20T01:22:15;1.30;;;1.10;;
9821;SDS011;4950;46.042;14.472;2022-11-20T01:24:41;1.30;;;1.20;;
9821;SDS011;4950;46.042;14.472;2022-11-20T01:27:09;1.17;;;1.07;;
9821;SDS011;4950;46.042;14.472;2022-11-20T01:29:36;1.00;;;0.90;;
9821;SDS011;4950;46.042;14.472;2022-11-20T01:32:03;1.10;;;1.00;;
9821;SDS011;4950;46.042;14.472;2022-11-20T01:34:30;1.00;;;0.90;;
9821;SDS011;4950;46.042;14.472;2022-11-20T01:36:57;2.43;;;1.10;;
9821;SDS011;4950;46.042;14.472;2022-11-20T01:39:24;1.13;;;1.03;;
9821;SDS011;4950;46.042;14.472;2022-11-20T01:41:52;0.80;;;0.80;;
9821;SDS011;4950;46.042;14.472;2022-11-20T01:44:47;1.57;;;1.00;;
9821;SDS011;4950;46.042;14.472;2022-11-20T01:47:16;1.17;;;1.07;;
9821;SDS011;4950;46.042;14.472;2022-11-20T01:49:46;1.20;;;1.10;;
9821;SDS011;4950;46.042;14.472;2022-11-20T01:52:17;1.27;;;0.97;;
9821;SDS011;4950;46.042;14.472;2022-11-20T01:54:49;1.43;;;0.90;;
9821;SDS011;4950;46.042;14.472;2022-11-20T01:57:20;1.00;;;0.87;;
9821;SDS011;4950;46.042;14.472;2022-11-20T01:59:59;1.00;;;0.90;;
9821;SDS011;4950;46.042;14.472;2022-11-20T02:02:30;1.00;;;0.90;;
9821;SDS011;4950;46.042;14.472;2022-11-20T02:04:59;0.73;;;0.70;;
9821;SDS011;4950;46.042;14.472;2022-11-20T02:07:35;0.80;;;0.70;;
9821;SDS011;4950;46.042;14.472;2022-11-20T02:10:03;0.80;;;0.80;;
9821;SDS011;4950;46.042;14.472;2022-11-20T02:12:30;1.00;;;0.80;;
9821;SDS011;4950;46.042;14.472;2022-11-20T02:15:18;0.70;;;0.70;;
9821;SDS011;4950;46.042;14.472;2022-11-20T02:17:45;1.23;;;0.80;;
9821;SDS011;4950;46.042;14.472;2022-11-20T02:20:12;0.70;;;0.70;;
9821;SDS011;4950;46.042;14.472;2022-11-20T02:22:41;0.77;;;0.70;;
9821;SDS011;4950;46.042;14.472;2022-11-20T02:25:16;0.87;;;0.80;;
9821;SDS011;4950;46.042;14.472;2022-11-20T02:27:43;0.73;;;0.70;;
9821;SDS011;4950;46.042;14.472;2022-11-20T02:30:10;0.97;;;0.77;;
9821;SDS011;4950;46.042;14.472;2022-11-20T02:32:37;0.70;;;0.70;;
9821;SDS011;4950;46.042;14.472;2022-11-20T02:35:06;0.70;;;0.70;;
9821;SDS011;4950;46.042;14.472;2022-11-20T02:37:36;0.97;;;0.70;;
9821;SDS011;4950;46.042;14.472;2022-11-20T02:40:05;1.00;;;0.70;;
9821;SDS011;4950;46.042;14.472;2022-11-20T02:42:34;0.60;;;0.60;;
9821;SDS011;4950;46.042;14.472;2022-11-20T02:45:01;0.80;;;0.67;;
9821;SDS011;4950;46.042;14.472;2022-11-20T02:47:28;0.70;;;0.60;;
9821;SDS011;4950;46.042;14.472;2022-11-20T02:49:54;2.20;;;1.00;;
9821;SDS011;4950;46.042;14.472;2022-11-20T02:52:21;0.80;;;0.70;;
9821;SDS011;4950;46.042;14.472;2022-11-20T02:54:48;0.70;;;0.70;;
9821;SDS011;4950;46.042;14.472;2022-11-20T02:57:14;0.80;;;0.60;;
9821;SDS011;4950;46.042;14.472;2022-11-20T02:59:42;1.00;;;0.90;;
9821;SDS011;4950;46.042;14.472;2022-11-20T03:02:09;0.60;;;0.60;;
9821;SDS011;4950;46.042;14.472;2022-11-20T03:04:36;0.80;;;0.67;;
9821;SDS011;4950;46.042;14.472;2022-11-20T03:07:02;0.87;;;0.80;;
9821;SDS011;4950;46.042;14.472;2022-11-20T03:09:29;0.97;;;0.80;;
9821;SDS011;4950;46.042;14.472;2022-11-20T03:11:56;2.03;;;0.70;;
9821;SDS011;4950;46.042;14.472;2022-11-20T03:14:23;1.07;;;0.93;;
9821;SDS011;4950;46.042;14.472;2022-11-20T03:16:51;0.63;;;0.60;;
9821;SDS011;4950;46.042;14.472;2022-11-20T03:19:17;0.60;;;0.60;;
9821;SDS011;4950;46.042;14.472;2022-11-20T03:21:44;0.80;;;0.80;;
9821;SDS011;4950;46.042;14.472;2022-11-20T03:24:11;1.57;;;0.57;;
9821;SDS011;4950;46.042;14.472;2022-11-20T03:26:38;0.80;;;0.70;;
9821;SDS011;4950;46.042;14.472;2022-11-20T03:29:05;0.70;;;0.70;;
9821;SDS011;4950;46.042;14.472;2022-11-20T03:31:33;0.67;;;0.53;;
9821;SDS011;4950;46.042;14.472;2022-11-20T03:34:02;0.60;;;0.60;;
9821;SDS011;4950;46.042;14.472;2022-11-20T03:36:30;0.60;;;0.60;;
9821;SDS011;4950;46.042;14.472;2022-11-20T03:38:57;0.63;;;0.63;;
9821;SDS011;4950;46.042;14.472;2022-11-20T03:41:24;0.50;;;0.50;;
9821;SDS011;4950;46.042;14.472;2022-11-20T03:43:53;0.67;;;0.67;;
9821;SDS011;4950;46.042;14.472;2022-11-20T03:46:21;0.60;;;0.53;;
9821;SDS011;4950;46.042;14.472;2022-11-20T03:48:48;0.63;;;0.57;;
9821;SDS011;4950;46.042;14.472;2022-11-20T03:51:17;0.73;;;0.53;;
9821;SDS011;4950;46.042;14.472;2022-11-20T03:53:45;0.73;;;0.60;;
9821;SDS011;4950;46.042;14.472;2022-11-20T03:56:14;0.80;;;0.60;;
9821;SDS011;4950;46.042;14.472;2022-11-20T03:58:41;0.80;;;0.70;;
9821;SDS011;4950;46.042;14.472;2022-11-20T04:01:09;0.80;;;0.60;;
9821;SDS011;4950;46.042;14.472;2022-11-20T04:03:38;1.43;;;0.50;;
9821;SDS011;4950;46.042;14.472;2022-11-20T04:06:05;0.50;;;0.50;;
9821;SDS011;4950;46.042;14.472;2022-11-20T04:08:35;0.70;;;0.50;;
9821;SDS011;4950;46.042;14.472;2022-11-20T04:11:09;0.67;;;0.60;;
9821;SDS011;4950;46.042;14.472;2022-11-20T04:13:37;0.93;;;0.53;;
9821;SDS011;4950;46.042;14.472;2022-11-20T04:16:04;1.13;;;0.60;;
9821;SDS011;4950;46.042;14.472;2022-11-20T04:18:31;0.67;;;0.67;;
9821;SDS011;4950;46.042;14.472;2022-11-20T04:20:58;0.70;;;0.60;;
9821;SDS011;4950;46.042;14.472;2022-11-20T04:23:25;1.03;;;0.50;;
9821;SDS011;4950;46.042;14.472;2022-11-20T04:25:54;0.70;;;0.70;;
9821;SDS011;4950;46.042;14.472;2022-11-20T04:28:20;2.60;;;0.80;;
9821;SDS011;4950;46.042;14.472;2022-11-20T04:30:47;0.70;;;0.70;;
9821;SDS011;4950;46.042;14.472;2022-11-20T04:33:14;0.83;;;0.83;;
9821;SDS011;4950;46.042;14.472;2022-11-20T04:35:40;0.67;;;0.63;;
9821;SDS011;4950;46.042;14.472;2022-11-20T04:38:07;0.93;;;0.60;;
9821;SDS011;4950;46.042;14.472;2022-11-20T04:40:34;0.70;;;0.50;;
9821;SDS011;4950;46.042;14.472;2022-11-20T04:43:02;0.60;;;0.60;;
9821;SDS011;4950;46.042;14.472;2022-11-20T04:45:28;0.50;;;0.50;;
9821;SDS011;4950;46.042;14.472;2022-11-20T04:47:55;0.53;;;0.50;;
9821;SDS011;4950;46.042;14.472;2022-11-20T04:50:22;1.07;;;0.53;;
9821;SDS011;4950;46.042;14.472;2022-11-20T04:52:48;0.57;;;0.57;;
9821;SDS011;4950;46.042;14.472;2022-11-20T04:55:15;0.50;;;0.50;;
9821;SDS011;4950;46.042;14.472;2022-11-20T04:57:42;0.60;;;0.50;;
9821;SDS011;4950;46.042;14.472;2022-11-20T05:00:10;0.50;;;0.50;;
9821;SDS011;4950;46.042;14.472;2022-11-20T05:02:38;0.50;;;0.50;;
9821;SDS011;4950;46.042;14.472;2022-11-20T05:05:05;0.80;;;0.50;;
9821;SDS011;4950;46.042;14.472;2022-11-20T05:07:31;1.20;;;0.70;;
9821;SDS011;4950;46.042;14.472;2022-11-20T05:09:58;0.60;;;0.60;;
9821;SDS011;4950;46.042;14.472;2022-11-20T05:12:25;0.70;;;0.70;;
9821;SDS011;4950;46.042;14.472;2022-11-20T05:14:52;0.60;;;0.60;;
9821;SDS011;4950;46.042;14.472;2022-11-20T05:17:20;0.80;;;0.60;;
9821;SDS011;4950;46.042;14.472;2022-11-20T05:19:47;0.87;;;0.70;;
9821;SDS011;4950;46.042;14.472;2022-11-20T05:22:13;0.80;;;0.60;;
9821;SDS011;4950;46.042;14.472;2022-11-20T05:24:40;1.13;;;0.60;;
9821;SDS011;4950;46.042;14.472;2022-11-20T05:27:07;0.90;;;0.60;;
9821;SDS011;4950;46.042;14.472;2022-11-20T05:29:33;0.60;;;0.50;;
9821;SDS011;4950;46.042;14.472;2022-11-20T05:32:00;0.60;;;0.60;;
9821;SDS011;4950;46.042;14.472;2022-11-20T05:34:28;0.60;;;0.57;;
9821;SDS011;4950;46.042;14.472;2022-11-20T05:36:54;1.20;;;0.50;;
9821;SDS011;4950;46.042;14.472;2022-11-20T05:39:21;0.63;;;0.63;;
9821;SDS011;4950;46.042;14.472;2022-11-20T05:41:48;1.47;;;0.60;;
9821;SDS011;4950;46.042;14.472;2022-11-20T05:44:34;0.70;;;0.70;;
9821;SDS011;4950;46.042;14.472;2022-11-20T05:47:01;0.60;;;0.57;;
9821;SDS011;4950;46.042;14.472;2022-11-20T05:49:29;0.80;;;0.80;;
9821;SDS011;4950;46.042;14.472;2022-11-20T05:51:56;0.70;;;0.70;;
9821;SDS011;4950;46.042;14.472;2022-11-20T05:54:22;0.87;;;0.80;;
9821;SDS011;4950;46.042;14.472;2022-11-20T05:56:49;0.63;;;0.63;;
9821;SDS011;4950;46.042;14.472;2022-11-20T05:59:15;1.17;;;0.80;;
9821;SDS011;4950;46.042;14.472;2022-11-20T06:01:42;1.10;;;0.70;;
9821;SDS011;4950;46.042;14.472;2022-11-20T06:04:09;1.23;;;0.80;;
9821;SDS011;4950;46.042;14.472;2022-11-20T06:06:37;0.63;;;0.63;;
9821;SDS011;4950;46.042;14.472;2022-11-20T06:09:03;0.80;;;0.60;;
9821;SDS011;4950;46.042;14.472;2022-11-20T06:11:30;0.73;;;0.60;;
9821;SDS011;4950;46.042;14.472;2022-11-20T06:13:57;0.63;;;0.60;;
9821;SDS011;4950;46.042;14.472;2022-11-20T06:16:23;0.70;;;0.70;;
9821;SDS011;4950;46.042;14.472;2022-11-20T06:18:50;0.73;;;0.70;;
9821;SDS011;4950;46.042;14.472;2022-11-20T06:21:18;0.70;;;0.63;;
9821;SDS011;4950;46.042;14.472;2022-11-20T06:23:47;1.13;;;0.80;;
9821;SDS011;4950;46.042;14.472;2022-11-20T06:26:15;0.87;;;0.77;;
9821;SDS011;4950;46.042;14.472;2022-11-20T06:28:43;0.97;;;0.70;;
9821;SDS011;4950;46.042;14.472;2022-11-20T06:31:11;0.90;;;0.70;;
9821;SDS011;4950;46.042;14.472;2022-11-20T06:33:39;0.60;;;0.60;;
9821;SDS011;4950;46.042;14.472;2022-11-20T06:36:06;0.63;;;0.60;;
9821;SDS011;4950;46.042;14.472;2022-11-20T06:38:33;0.50;;;0.50;;
9821;SDS011;4950;46.042;14.472;2022-11-20T06:41:01;0.70;;;0.50;;
9821;SDS011;4950;46.042;14.472;2022-11-20T06:43:29;0.80;;;0.80;;
9821;SDS011;4950;46.042;14.472;2022-11-20T06:45:56;0.80;;;0.70;;
9821;SDS011;4950;46.042;14.472;2022-11-20T06:48:25;0.77;;;0.70;;
9821;SDS011;4950;46.042;14.472;2022-11-20T06:50:52;0.67;;;0.60;;
9821;SDS011;4950;46.042;14.472;2022-11-20T06:53:19;1.27;;;0.80;;
9821;SDS011;4950;46.042;14.472;2022-11-20T06:55:46;0.53;;;0.53;;
9821;SDS011;4950;46.042;14.472;2022-11-20T06:58:15;0.60;;;0.60;;
9821;SDS011;4950;46.042;14.472;2022-11-20T07:00:42;0.73;;;0.70;;
9821;SDS011;4950;46.042;14.472;2022-11-20T07:03:10;1.00;;;0.80;;
9821;SDS011;4950;46.042;14.472;2022-11-20T07:05:38;1.00;;;0.83;;
9821;SDS011;4950;46.042;14.472;2022-11-20T07:08:05;1.70;;;1.47;;
9821;SDS011;4950;46.042;14.472;2022-11-20T07:10:32;1.73;;;1.23;;
9821;SDS011;4950;46.042;14.472;2022-11-20T07:12:59;1.63;;;1.00;;
9821;SDS011;4950;46.042;14.472;2022-11-20T07:15:27;0.77;;;0.77;;
9821;SDS011;4950;46.042;14.472;2022-11-20T07:17:54;1.03;;;0.93;;
9821;SDS011;4950;46.042;14.472;2022-11-20T07:20:21;2.27;;;0.83;;
9821;SDS011;4950;46.042;14.472;2022-11-20T07:22:52;1.30;;;1.00;;
9821;SDS011;4950;46.042;14.472;2022-11-20T07:25:19;1.03;;;0.90;;
9821;SDS011;4950;46.042;14.472;2022-11-20T07:27:46;1.20;;;1.10;;
9821;SDS011;4950;46.042;14.472;2022-11-20T07:30:13;1.30;;;1.20;;
9821;SDS011;4950;46.042;14.472;2022-11-20T07:32:41;1.40;;;1.30;;
9821;SDS011;4950;46.042;14.472;2022-11-20T07:35:08;1.43;;;1.30;;
9821;SDS011;4950;46.042;14.472;2022-11-20T07:37:35;1.73;;;1.03;;
9821;SDS011;4950;46.042;14.472;2022-11-20T07:40:02;2.13;;;0.80;;
9821;SDS011;4950;46.042;14.472;2022-11-20T07:42:29;1.10;;;1.00;;
9821;SDS011;4950;46.042;14.472;2022-11-20T07:44:56;1.20;;;1.10;;
9821;SDS011;4950;46.042;14.472;2022-11-20T07:47:22;1.47;;;1.17;;
9821;SDS011;4950;46.042;14.472;2022-11-20T07:49:51;2.40;;;1.20;;
9821;SDS011;4950;46.042;14.472;2022-11-20T07:52:17;2.07;;;1.53;;
9821;SDS011;4950;46.042;14.472;2022-11-20T07:54:44;1.80;;;1.40;;
9821;SDS011;4950;46.042;14.472;2022-11-20T07:57:11;2.00;;;1.57;;
9821;SDS011;4950;46.042;14.472;2022-11-20T07:59:37;2.93;;;1.40;;
9821;SDS011;4950;46.042;14.472;2022-11-20T08:02:05;1.33;;;1.10;;
9821;SDS011;4950;46.042;14.472;2022-11-20T08:04:31;1.30;;;1.20;;
9821;SDS011;4950;46.042;14.472;2022-11-20T08:06:59;1.40;;;1.30;;
9821;SDS011;4950;46.042;14.472;2022-11-20T08:09:26;1.30;;;1.20;;
9821;SDS011;4950;46.042;14.472;2022-11-20T08:11:53;1.30;;;1.20;;
9821;SDS011;4950;46.042;14.472;2022-11-20T08:14:38;1.57;;;1.37;;
9821;SDS011;4950;46.042;14.472;2022-11-20T08:17:04;2.20;;;1.50;;
9821;SDS011;4950;46.042;14.472;2022-11-20T08:19:31;2.70;;;1.87;;
9821;SDS011;4950;46.042;14.472;2022-11-20T08:21:59;1.87;;;1.50;;
9821;SDS011;4950;46.042;14.472;2022-11-20T08:24:26;1.80;;;1.70;;
9821;SDS011;4950;46.042;14.472;2022-11-20T08:26:53;1.97;;;1.70;;
9821;SDS011;4950;46.042;14.472;2022-11-20T08:29:19;1.40;;;1.30;;
9821;SDS011;4950;46.042;14.472;2022-11-20T08:31:46;1.53;;;1.40;;
9821;SDS011;4950;46.042;14.472;2022-11-20T08:34:13;1.30;;;1.20;;
9821;SDS011;4950;46.042;14.472;2022-11-20T08:36:40;1.20;;;1.10;;
9821;SDS011;4950;46.042;14.472;2022-11-20T08:39:10;1.23;;;1.13;;
9821;SDS011;4950;46.042;14.472;2022-11-20T08:41:38;1.43;;;1.20;;
9821;SDS011;4950;46.042;14.472;2022-11-20T08:44:05;1.20;;;1.10;;
9821;SDS011;4950;46.042;14.472;2022-11-20T08:46:34;1.60;;;1.50;;
9821;SDS011;4950;46.042;14.472;2022-11-20T08:49:03;2.03;;;1.33;;
9821;SDS011;4950;46.042;14.472;2022-11-20T08:51:30;2.17;;;1.40;;
9821;SDS011;4950;46.042;14.472;2022-11-20T08:53:56;1.50;;;1.40;;
9821;SDS011;4950;46.042;14.472;2022-11-20T08:56:24;1.40;;;1.30;;
9821;SDS011;4950;46.042;14.472;2022-11-20T08:58:51;1.60;;;1.40;;
9821;SDS011;4950;46.042;14.472;2022-11-20T09:01:18;2.10;;;1.27;;
9821;SDS011;4950;46.042;14.472;2022-11-20T09:03:45;2.03;;;1.43;;
9821;SDS011;4950;46.042;14.472;2022-11-20T09:06:12;1.77;;;1.17;;
9821;SDS011;4950;46.042;14.472;2022-11-20T09:08:39;1.10;;;1.00;;
9821;SDS011;4950;46.042;14.472;2022-11-20T09:11:06;1.53;;;1.17;;
9821;SDS011;4950;46.042;14.472;2022-11-20T09:13:35;1.70;;;1.40;;
9821;SDS011;4950;46.042;14.472;2022-11-20T09:16:02;1.63;;;1.53;;
9821;SDS011;4950;46.042;14.472;2022-11-20T09:18:31;1.50;;;1.30;;
9821;SDS011;4950;46.042;14.472;2022-11-20T09:21:02;1.60;;;1.43;;
9821;SDS011;4950;46.042;14.472;2022-11-20T09:23:31;1.40;;;1.30;;
9821;SDS011;4950;46.042;14.472;2022-11-20T09:26:01;1.40;;;1.30;;
9821;SDS011;4950;46.042;14.472;2022-11-20T09:28:28;1.70;;;1.30;;
9821;SDS011;4950;46.042;14.472;2022-11-20T09:30:57;1.73;;;1.43;;
9821;SDS011;4950;46.042;14.472;2022-11-20T09:33:23;1.67;;;1.57;;
9821;SDS011;4950;46.042;14.472;2022-11-20T09:35:50;1.70;;;1.60;;
9821;SDS011;4950;46.042;14.472;2022-11-20T09:38:17;1.57;;;1.47;;
9821;SDS011;4950;46.042;14.472;2022-11-20T09:40:45;1.80;;;1.40;;
9821;SDS011;4950;46.042;14.472;2022-11-20T09:43:18;2.00;;;1.70;;
9821;SDS011;4950;46.042;14.472;2022-11-20T09:46:04;1.80;;;1.50;;
9821;SDS011;4950;46.042;14.472;2022-11-20T09:48:42;2.07;;;1.90;;
9821;SDS011;4950;46.042;14.472;2022-11-20T09:51:21;3.63;;;2.00;;
9821;SDS011;4950;46.042;14.472;2022-11-20T09:54:01;1.30;;;1.20;;
9821;SDS011;4950;46.042;14.472;2022-11-20T09:56:40;1.50;;;1.40;;
9821;SDS011;4950;46.042;14.472;2022-11-20T09:59:14;1.17;;;1.07;;
9821;SDS011;4950;46.042;14.472;2022-11-20T10:01:53;1.40;;;1.30;;
9821;SDS011;4950;46.042;14.472;2022-11-20T10:04:21;1.43;;;1.33;;
9821;SDS011;4950;46.042;14.472;2022-11-20T10:06:50;1.43;;;1.20;;
9821;SDS011;4950;46.042;14.472;2022-11-20T10:09:23;2.20;;;1.70;;
9821;SDS011;4950;46.042;14.472;2022-11-20T10:12:00;1.90;;;1.20;;
9821;SDS011;4950;46.042;14.472;2022-11-20T10:14:42;1.60;;;1.50;;
9821;SDS011;4950;46.042;14.472;2022-11-20T10:17:22;1.60;;;1.50;;
9821;SDS011;4950;46.042;14.472;2022-11-20T10:20:02;2.10;;;1.40;;
9821;SDS011;4950;46.042;14.472;2022-11-20T10:22:44;1.73;;;1.30;;
9821;SDS011;4950;46.042;14.472;2022-11-20T10:25:18;1.30;;;1.20;;
9821;SDS011;4950;46.042;14.472;2022-11-20T10:30:43;1.10;;;0.90;;
9821;SDS011;4950;46.042;14.472;2022-11-20T10:33:17;1.43;;;1.30;;
9821;SDS011;4950;46.042;14.472;2022-11-20T10:35:49;1.13;;;1.03;;
9821;SDS011;4950;46.042;14.472;2022-11-20T10:38:21;1.47;;;1.20;;
9821;SDS011;4950;46.042;14.472;2022-11-20T10:40:52;1.10;;;0.93;;
9821;SDS011;4950;46.042;14.472;2022-11-20T10:43:41;1.43;;;1.27;;
9821;SDS011;4950;46.042;14.472;2022-11-20T10:46:10;2.47;;;1.40;;
9821;SDS011;4950;46.042;14.472;2022-11-20T10:48:43;2.97;;;1.47;;
9821;SDS011;4950;46.042;14.472;2022-11-20T10:51:13;1.60;;;1.40;;
9821;SDS011;4950;46.042;14.472;2022-11-20T10:54:03;1.17;;;1.07;;
9821;SDS011;4950;46.042;14.472;2022-11-20T10:56:40;1.30;;;1.20;;
9821;SDS011;4950;46.042;14.472;2022-11-20T10:59:18;1.30;;;1.00;;
9821;SDS011;4950;46.042;14.472;2022-11-20T11:01:59;1.30;;;1.20;;
9821;SDS011;4950;46.042;14.472;2022-11-20T11:04:44;1.20;;;1.10;;
9821;SDS011;4950;46.042;14.472;2022-11-20T11:07:12;1.20;;;1.00;;
9821;SDS011;4950;46.042;14.472;2022-11-20T11:09:43;1.43;;;1.30;;
9821;SDS011;4950;46.042;14.472;2022-11-20T11:12:12;1.47;;;1.27;;
9821;SDS011;4950;46.042;14.472;2022-11-20T11:14:43;1.30;;;1.10;;
9821;SDS011;4950;46.042;14.472;2022-11-20T11:17:25;1.40;;;1.30;;
9821;SDS011;4950;46.042;14.472;2022-11-20T11:19:59;1.67;;;1.33;;
9821;SDS011;4950;46.042;14.472;2022-11-20T11:22:28;1.40;;;1.20;;
9821;SDS011;4950;46.042;14.472;2022-11-20T11:24:55;2.37;;;1.60;;
9821;SDS011;4950;46.042;14.472;2022-11-20T11:27:22;1.77;;;1.30;;
9821;SDS011;4950;46.042;14.472;2022-11-20T11:29:49;1.77;;;1.67;;
9821;SDS011;4950;46.042;14.472;2022-11-20T11:32:17;1.63;;;1.53;;
9821;SDS011;4950;46.042;14.472;2022-11-20T11:34:59;1.90;;;1.80;;
9821;SDS011;4950;46.042;14.472;2022-11-20T11:37:26;2.10;;;1.80;;
9821;SDS011;4950;46.042;14.472;2022-11-20T11:39:59;1.87;;;1.60;;
9821;SDS011;4950;46.042;14.472;2022-11-20T11:42:26;2.20;;;1.90;;
9821;SDS011;4950;46.042;14.472;2022-11-20T11:44:54;1.87;;;1.70;;
9821;SDS011;4950;46.042;14.472;2022-11-20T11:47:31;1.73;;;1.63;;
9821;SDS011;4950;46.042;14.472;2022-11-20T11:50:13;1.77;;;1.67;;
9821;SDS011;4950;46.042;14.472;2022-11-20T11:52:46;2.40;;;1.87;;
9821;SDS011;4950;46.042;14.472;2022-11-20T11:55:23;1.77;;;1.67;;
9821;SDS011;4950;46.042;14.472;2022-11-20T11:57:57;1.73;;;1.63;;
9821;SDS011;4950;46.042;14.472;2022-11-20T12:00:33;2.20;;;1.70;;
9821;SDS011;4950;46.042;14.472;2022-11-20T12:03:03;2.17;;;1.97;;
9821;SDS011;4950;46.042;14.472;2022-11-20T12:05:38;2.37;;;1.90;;
9821;SDS011;4950;46.042;14.472;2022-11-20T12:08:11;2.10;;;1.80;;
9821;SDS011;4950;46.042;14.472;2022-11-20T12:10:45;1.60;;;1.50;;
9821;SDS011;4950;46.042;14.472;2022-11-20T12:13:18;1.90;;;1.70;;
9821;SDS011;4950;46.042;14.472;2022-11-20T12:15:52;2.70;;;1.80;;
9821;SDS011;4950;46.042;14.472;2022-11-20T12:18:20;1.97;;;1.77;;
9821;SDS011;4950;46.042;14.472;2022-11-20T12:20:53;1.93;;;1.77;;
9821;SDS011;4950;46.042;14.472;2022-11-20T12:23:31;2.83;;;2.17;;
9821;SDS011;4950;46.042;14.472;2022-11-20T12:26:08;1.77;;;1.37;;
9821;SDS011;4950;46.042;14.472;2022-11-20T12:28:47;1.70;;;1.60;;
9821;SDS011;4950;46.042;14.472;2022-11-20T12:31:28;2.20;;;1.97;;
9821;SDS011;4950;46.042;14.472;2022-11-20T12:34:09;2.33;;;2.00;;
9821;SDS011;4950;46.042;14.472;2022-11-20T12:36:52;1.87;;;1.60;;
9821;SDS011;4950;46.042;14.472;2022-11-20T12:39:33;2.00;;;1.77;;
9821;SDS011;4950;46.042;14.472;2022-11-20T12:48:33;1.77;;;1.67;;
9821;SDS011;4950;46.042;14.472;2022-11-20T12:51:16;1.90;;;1.70;;
9821;SDS011;4950;46.042;14.472;2022-11-20T12:54:08;1.97;;;1.60;;
9821;SDS011;4950;46.042;14.472;2022-11-20T12:56:47;2.37;;;2.17;;
9821;SDS011;4950;46.042;14.472;2022-11-20T12:59:28;3.00;;;1.90;;
9821;SDS011;4950;46.042;14.472;2022-11-20T13:02:11;2.27;;;2.07;;
9821;SDS011;4950;46.042;14.472;2022-11-20T13:04:53;2.93;;;1.90;;
9821;SDS011;4950;46.042;14.472;2022-11-20T13:07:35;2.93;;;2.20;;
9821;SDS011;4950;46.042;14.472;2022-11-20T13:10:04;2.73;;;2.50;;
9821;SDS011;4950;46.042;14.472;2022-11-20T13:12:40;2.20;;;1.80;;
9821;SDS011;4950;46.042;14.472;2022-11-20T13:15:15;2.90;;;2.40;;
9821;SDS011;4950;46.042;14.472;2022-11-20T13:17:47;2.37;;;2.17;;
9821;SDS011;4950;46.042;14.472;2022-11-20T13:20:20;2.70;;;2.50;;
9821;SDS011;4950;46.042;14.472;2022-11-20T13:22:48;2.33;;;2.03;;
9821;SDS011;4950;46.042;14.472;2022-11-20T13:25:24;2.80;;;2.60;;
9821;SDS011;4950;46.042;14.472;2022-11-20T13:27:52;2.43;;;2.20;;
9821;SDS011;4950;46.042;14.472;2022-11-20T13:30:20;2.63;;;2.00;;
9821;SDS011;4950;46.042;14.472;2022-11-20T13:32:51;2.27;;;1.90;;
9821;SDS011;4950;46.042;14.472;2022-11-20T13:35:24;2.10;;;1.70;;
9821;SDS011;4950;46.042;14.472;2022-11-20T13:37:59;2.17;;;1.90;;
9821;SDS011;4950;46.042;14.472;2022-11-20T13:40:29;2.13;;;1.83;;
9821;SDS011;4950;46.042;14.472;2022-11-20T13:43:01;2.20;;;1.87;;
9821;SDS011;4950;46.042;14.472;2022-11-20T13:45:33;2.13;;;1.93;;
9821;SDS011;4950;46.042;14.472;2022-11-20T13:48:01;2.93;;;2.00;;
9821;SDS011;4950;46.042;14.472;2022-11-20T13:50:40;2.47;;;2.27;;
9821;SDS011;4950;46.042;14.472;2022-11-20T13:53:21;2.43;;;2.23;;
9821;SDS011;4950;46.042;14.472;2022-11-20T13:56:00;2.27;;;2.07;;
9821;SDS011;4950;46.042;14.472;2022-11-20T13:58:36;2.20;;;1.93;;
9821;SDS011;4950;46.042;14.472;2022-11-20T14:01:13;1.77;;;1.60;;
9821;SDS011;4950;46.042;14.472;2022-11-20T14:03:43;2.43;;;2.10;;
9821;SDS011;4950;46.042;14.472;2022-11-20T14:06:11;2.03;;;1.93;;
9821;SDS011;4950;46.042;14.472;2022-11-20T14:08:42;2.43;;;2.23;;
9821;SDS011;4950;46.042;14.472;2022-11-20T14:11:15;2.90;;;2.60;;
9821;SDS011;4950;46.042;14.472;2022-11-20T14:13:54;3.27;;;2.93;;
9821;SDS011;4950;46.042;14.472;2022-11-20T14:16:23;3.73;;;2.60;;
9821;SDS011;4950;46.042;14.472;2022-11-20T14:18:50;2.80;;;2.60;;
9821;SDS011;4950;46.042;14.472;2022-11-20T14:21:24;2.90;;;2.60;;
9821;SDS011;4950;46.042;14.472;2022-11-20T14:23:53;2.53;;;2.33;;
9821;SDS011;4950;46.042;14.472;2022-11-20T14:26:22;3.43;;;3.10;;
9821;SDS011;4950;46.042;14.472;2022-11-20T14:28:49;4.67;;;4.03;;
9821;SDS011;4950;46.042;14.472;2022-11-20T14:31:20;5.13;;;4.63;;
9821;SDS011;4950;46.042;14.472;2022-11-20T14:33:50;5.17;;;4.67;;
9821;SDS011;4950;46.042;14.472;2022-11-20T14:36:18;5.10;;;4.57;;
9821;SDS011;4950;46.042;14.472;2022-11-20T14:38:48;4.57;;;4.17;;
9821;SDS011;4950;46.042;14.472;2022-11-20T14:41:16;4.73;;;3.50;;
9821;SDS011;4950;46.042;14.472;2022-11-20T14:43:47;1.87;;;1.73;;
9821;SDS011;4950;46.042;14.472;2022-11-20T14:46:16;2.63;;;1.80;;
9821;SDS011;4950;46.042;14.472;2022-11-20T14:48:45;1.90;;;1.70;;
9821;SDS011;4950;46.042;14.472;2022-11-20T14:51:22;1.43;;;1.33;;
9821;SDS011;4950;46.042;14.472;2022-11-20T14:53:53;1.40;;;1.30;;
9821;SDS011;4950;46.042;14.472;2022-11-20T14:56:21;1.80;;;1.40;;
9821;SDS011;4950;46.042;14.472;2022-11-20T14:58:56;1.83;;;1.63;;
9821;SDS011;4950;46.042;14.472;2022-11-20T15:01:27;2.20;;;2.00;;
9821;SDS011;4950;46.042;14.472;2022-11-20T15:03:59;2.40;;;2.20;;
9821;SDS011;4950;46.042;14.472;2022-11-20T15:06:28;2.47;;;1.97;;
9821;SDS011;4950;46.042;14.472;2022-11-20T15:08:56;2.47;;;2.17;;
9821;SDS011;4950;46.042;14.472;2022-11-20T15:11:25;2.40;;;2.20;;
9821;SDS011;4950;46.042;14.472;2022-11-20T15:13:56;2.33;;;2.00;;
9821;SDS011;4950;46.042;14.472;2022-11-20T15:16:27;2.93;;;1.83;;
9821;SDS011;4950;46.042;14.472;2022-11-20T15:18:54;1.70;;;1.60;;
9821;SDS011;4950;46.042;14.472;2022-11-20T15:21:21;2.13;;;1.80;;
9821;SDS011;4950;46.042;14.472;2022-11-20T15:23:48;2.33;;;2.10;;
9821;SDS011;4950;46.042;14.472;2022-11-20T15:26:17;2.10;;;1.90;;